Time;durP1;ratioP1;P1;durP2;ratioP2;P2;SDS_P1;SDS_P2;PMS_P1;PMS_P2;Temp;Humidity;BMP_temperature;BMP_pressure;BME280_temperature;BME280_humidity;BME280_pressure;Samples;Min_cycle;Max_cycle;Signal;HPM_P1;HPM_P2
2022/03/28 00:02:15;;;;;;;;;;;;;;;;;;5092213;28;19913;-69
2022/03/28 00:04:41;;;;;;;;;;;;;;;;;;5093583;28;19908;-69
2022/03/28 00:07:07;;;;;;;;;;;;;;;;;;5094045;28;20007;-70
2022/03/28 00:09:33;;;;;;;;;;;;;;;;;;5097433;28;20013;-70
2022/03/28 00:11:59;;;;;;;;;;;;;;;;;;5097266;28;19943;-70
2022/03/28 00:14:25;;;;;;;;;;;;;;;;;;5096929;28;19947;-70
2022/03/28 00:16:51;;;;;;;;;;;;;;;;;;5097168;28;19908;-70
2022/03/28 00:19:17;;;;;;;;;;;;;;;;;;5097139;28;19991;-69
2022/03/28 00:21:43;;;;;;;;;;;;;;;;;;5096586;28;19965;-69
2022/03/28 00:24:09;;;;;;;;;;;;;;;;;;5097487;28;19916;-70
2022/03/28 00:26:35;;;;;;;;;;;;;;;;;;5095699;28;19946;-70
2022/03/28 00:29:01;;;;;;;;;;;;;;;;;;5096474;28;19947;-70
2022/03/28 00:31:27;;;;;;;;;;;;;;;;;;5096979;28;19915;-70
2022/03/28 00:33:53;;;;;;;;;;;;;;;;;;5095690;28;20427;-70
2022/03/28 00:36:20;;;;;;;;;;;;;;;;;;5095211;28;20005;-70
2022/03/28 00:38:46;;;;;;;;;;;;;;;;;;5096705;28;20382;-70
2022/03/28 00:41:12;;;;;;;;;;;;;;;;;;5095279;28;19922;-70
2022/03/28 00:43:38;;;;;;;;;;;;;;;;;;5096253;28;19908;-70
2022/03/28 00:46:04;;;;;;;;;;;;;;;;;;5096619;28;19977;-70
2022/03/28 00:48:30;;;;;;;;;;;;;;;;;;5095264;28;19908;-70
2022/03/28 00:50:56;;;;;;;;;;;;;;;;;;5096134;28;20003;-70
2022/03/28 00:53:22;;;;;;;;;;;;;;;;;;5096455;28;19912;-70
2022/03/28 00:55:48;;;;;;;;;;;;;;;;;;5096267;28;19969;-70
2022/03/28 00:58:14;;;;;;;;;;;;;;;;;;5096683;28;19912;-70
2022/03/28 01:00:40;;;;;;;;;;;;;;;;;;5096273;28;20022;-70
2022/03/28 01:03:06;;;;;;;;;;;;;;;;;;5094572;28;19915;-70
2022/03/28 01:05:32;;;;;;;;;;;;;;;;;;5096247;28;19908;-70
2022/03/28 01:08:00;;;;;;;;;;;;;;;;;;5094904;28;19908;-70
2022/03/28 01:10:26;;;;;;;;;;;;;;;;;;5094449;28;19908;-69
2022/03/28 01:12:52;;;;;;;;;;;;;;;;;;5094794;28;19912;-70
2022/03/28 01:15:18;;;;;;;;;;;;;;;;;;5096520;28;19908;-70
2022/03/28 01:20:29;;;;;;;;;;;;;;;;;;5095818;28;19927;-71
2022/03/28 01:22:55;;;;;;;;;;;;;;;;;;5094702;28;19912;-70
2022/03/28 01:25:20;;;;;;;;;;;;;;;;;;5094152;28;19931;-70
2022/03/28 01:27:46;;;;;;;;;;;;;;;;;;5095841;28;19908;-70
2022/03/28 01:30:12;;;;;;;;;;;;;;;;;;5095732;28;19977;-70
2022/03/28 01:32:38;;;;;;;;;;;;;;;;;;5095321;28;19943;-70
2022/03/28 01:35:05;;;;;;;;;;;;;;;;;;5095721;28;19912;-70
2022/03/28 01:37:31;;;;;;;;;;;;;;;;;;5094292;28;20353;-70
2022/03/28 01:39:57;;;;;;;;;;;;;;;;;;5093835;28;19915;-70
2022/03/28 01:42:23;;;;;;;;;;;;;;;;;;5096052;28;19912;-70
2022/03/28 01:44:49;;;;;;;;;;;;;;;;;;5094236;28;19957;-70
2022/03/28 01:47:16;;;;;;;;;;;;;;;;;;5095056;28;19911;-70
2022/03/28 01:49:42;;;;;;;;;;;;;;;;;;5095387;28;19908;-70
2022/03/28 01:52:08;;;;;;;;;;;;;;;;;;5093608;28;19953;-72
2022/03/28 01:54:34;;;;;;;;;;;;;;;;;;5095544;28;19916;-70
2022/03/28 01:57:00;;;;;;;;;;;;;;;;;;5095292;28;19914;-70
2022/03/28 01:59:26;;;;;;;;;;;;;;;;;;5094827;28;19912;-70
2022/03/28 02:01:52;;;;;;;;;;;;;;;;;;5095215;28;19916;-70
2022/03/28 02:04:18;;;;;;;;;;;;;;;;;;5095362;28;20464;-70
2022/03/28 02:06:44;;;;;;;;;;;;;;;;;;5094916;28;20342;-70
2022/03/28 02:09:10;;;;;;;;;;;;;;;;;;5095599;28;19908;-70
2022/03/28 02:11:36;;;;;;;;;;;;;;;;;;5093732;28;19908;-70
2022/03/28 02:14:02;;;;;;;;;;;;;;;;;;5094480;28;19999;-70
2022/03/28 02:16:28;;;;;;;;;;;;;;;;;;5095157;28;20430;-70
2022/03/28 02:18:54;;;;;;;;;;;;;;;;;;5094804;28;19912;-70
2022/03/28 02:21:20;;;;;;;;;;;;;;;;;;5094222;28;19924;-70
2022/03/28 02:23:46;;;;;;;;;;;;;;;;;;5094789;28;20280;-70
2022/03/28 02:26:13;;;;;;;;;;;;;;;;;;5094682;28;19908;-70
2022/03/28 02:28:39;;;;;;;;;;;;;;;;;;5094500;28;19909;-70
2022/03/28 02:31:05;;;;;;;;;;;;;;;;;;5092828;28;20037;-70
2022/03/28 02:33:33;;;;;;;;;;;;;;;;;;5095038;28;19908;-70
2022/03/28 02:35:59;;;;;;;;;;;;;;;;;;5094172;28;19973;-70
2022/03/28 02:38:25;;;;;;;;;;;;;;;;;;5094443;28;19970;-70
2022/03/28 02:40:51;;;;;;;;;;;;;;;;;;5094346;28;19923;-70
2022/03/28 02:43:17;;;;;;;;;;;;;;;;;;5094009;28;19908;-70
2022/03/28 02:45:43;;;;;;;;;;;;;;;;;;5094766;28;19912;-70
2022/03/28 02:48:09;;;;;;;;;;;;;;;;;;5094954;28;19908;-70
2022/03/28 02:50:35;;;;;;;;;;;;;;;;;;5092546;28;19908;-70
2022/03/28 02:53:01;;;;;;;;;;;;;;;;;;5094807;28;19908;-70
2022/03/28 02:55:27;;;;;;;;;;;;;;;;;;5094110;28;20276;-70
2022/03/28 02:57:53;;;;;;;;;;;;;;;;;;5094351;28;19998;-70
2022/03/28 03:00:20;;;;;;;;;;;;;;;;;;5094132;28;19912;-71
2022/03/28 03:02:46;;;;;;;;;;;;;;;;;;5093766;28;19999;-71
2022/03/28 03:05:12;;;;;;;;;;;;;;;;;;5094103;28;19951;-70
2022/03/28 03:07:38;;;;;;;;;;;;;;;;;;5094297;28;19961;-70
2022/03/28 03:10:04;;;;;;;;;;;;;;;;;;5093619;28;19913;-70
2022/03/28 03:12:30;;;;;;;;;;;;;;;;;;5094282;28;19995;-70
2022/03/28 03:14:56;;;;;;;;;;;;;;;;;;5094033;28;19915;-70
2022/03/28 03:17:22;;;;;;;;;;;;;;;;;;5093558;28;19908;-70
2022/03/28 03:19:48;;;;;;;;;;;;;;;;;;5093988;28;19965;-70
2022/03/28 03:22:14;;;;;;;;;;;;;;;;;;5092583;28;20299;-69
2022/03/28 03:24:40;;;;;;;;;;;;;;;;;;5093544;28;19919;-70
2022/03/28 03:27:06;;;;;;;;;;;;;;;;;;5093919;28;19908;-70
2022/03/28 03:29:32;;;;;;;;;;;;;;;;;;5092534;28;20390;-70
2022/03/28 03:31:58;;;;;;;;;;;;;;;;;;5092145;28;19912;-70
2022/03/28 03:34:24;;;;;;;;;;;;;;;;;;5093795;28;19950;-70
2022/03/28 03:36:50;;;;;;;;;;;;;;;;;;5093707;28;19914;-70
2022/03/28 03:39:16;;;;;;;;;;;;;;;;;;5093429;28;19908;-70
2022/03/28 03:41:42;;;;;;;;;;;;;;;;;;5093944;28;19961;-70
2022/03/28 03:44:09;;;;;;;;;;;;;;;;;;5097998;28;19936;-70
2022/03/28 03:46:35;;;;;;;;;;;;;;;;;;5097354;28;20354;-70
2022/03/28 03:49:01;;;;;;;;;;;;;;;;;;5096440;28;19954;-70
2022/03/28 03:51:27;;;;;;;;;;;;;;;;;;5097699;28;19908;-70
2022/03/28 03:53:53;;;;;;;;;;;;;;;;;;5097268;28;19915;-70
2022/03/28 03:56:19;;;;;;;;;;;;;;;;;;5096267;28;20057;-70
2022/03/28 03:58:45;;;;;;;;;;;;;;;;;;5097150;28;19912;-70
2022/03/28 04:01:11;;;;;;;;;;;;;;;;;;5096180;28;19916;-70
2022/03/28 04:03:37;;;;;;;;;;;;;;;;;;5097483;28;19916;-70
2022/03/28 04:06:03;;;;;;;;;;;;;;;;;;5097577;28;19958;-69
2022/03/28 04:08:29;;;;;;;;;;;;;;;;;;5097394;28;19915;-69
2022/03/28 04:10:54;;;;;;;;;;;;;;;;;;5096086;28;19912;-69
2022/03/28 04:13:20;;;;;;;;;;;;;;;;;;5097257;28;19951;-69
2022/03/28 04:15:47;;;;;;;;;;;;;;;;;;5097210;28;19931;-76
2022/03/28 04:18:13;;;;;;;;;;;;;;;;;;5097200;28;20287;-75
2022/03/28 04:20:39;;;;;;;;;;;;;;;;;;5096477;28;20015;-76
2022/03/28 04:23:05;;;;;;;;;;;;;;;;;;5097258;28;19947;-75
2022/03/28 04:25:31;;;;;;;;;;;;;;;;;;5095717;28;19908;-75
2022/03/28 04:27:57;;;;;;;;;;;;;;;;;;5096562;28;19931;-76
2022/03/28 04:30:23;;;;;;;;;;;;;;;;;;5097000;28;19909;-75
2022/03/28 04:32:49;;;;;;;;;;;;;;;;;;5096915;28;19908;-75
2022/03/28 04:35:15;;;;;;;;;;;;;;;;;;5095179;28;19912;-76
2022/03/28 04:37:41;;;;;;;;;;;;;;;;;;5095374;28;19908;-75
2022/03/28 04:40:07;;;;;;;;;;;;;;;;;;5096672;28;19909;-75
2022/03/28 04:42:33;;;;;;;;;;;;;;;;;;5096408;28;19929;-75
2022/03/28 04:44:59;;;;;;;;;;;;;;;;;;5096616;28;19908;-77
2022/03/28 04:47:25;;;;;;;;;;;;;;;;;;5096501;28;20295;-76
2022/03/28 04:49:51;;;;;;;;;;;;;;;;;;5094895;28;19908;-76
2022/03/28 04:52:17;;;;;;;;;;;;;;;;;;5094922;28;19908;-76
2022/03/28 04:54:43;;;;;;;;;;;;;;;;;;5096108;28;19930;-76
2022/03/28 04:57:09;;;;;;;;;;;;;;;;;;5094710;28;19908;-76
2022/03/28 04:59:35;;;;;;;;;;;;;;;;;;5096350;28;19912;-76
2022/03/28 05:02:01;;;;;;;;;;;;;;;;;;5095883;28;20368;-76
2022/03/28 05:04:27;;;;;;;;;;;;;;;;;;5094980;28;19953;-76
2022/03/28 05:06:53;;;;;;;;;;;;;;;;;;5094724;28;19909;-75
2022/03/28 05:09:19;;;;;;;;;;;;;;;;;;5093131;28;19919;-75
2022/03/28 05:11:45;;;;;;;;;;;;;;;;;;5094726;28;20387;-75
2022/03/28 05:14:11;;;;;;;;;;;;;;;;;;5095632;28;19914;-75
2022/03/28 05:16:37;;;;;;;;;;;;;;;;;;5095297;28;19912;-73
2022/03/28 05:19:03;;;;;;;;;;;;;;;;;;5114163;28;20387;-76
2022/03/28 05:21:29;;;;;;;;;;;;;;;;;;5094938;28;20401;-77
2022/03/28 05:23:55;;;;;;;;;;;;;;;;;;5099057;28;19920;-74
2022/03/28 05:26:21;;;;;;;;;;;;;;;;;;5110575;28;19896;-82
2022/03/28 05:28:47;;;;;;;;;;;;;;;;;;5103251;28;19918;-80
2022/03/28 05:31:13;;;;;;;;;;;;;;;;;;5100267;28;19909;-81
2022/03/28 05:33:39;;;;;;;;;;;;;;;;;;5097385;28;19931;-87
2022/03/28 05:36:05;;;;;;;;;;;;;;;;;;5097856;28;19920;-77
2022/03/28 05:38:31;;;;;;;;;;;;;;;;;;5092534;28;20385;-76
2022/03/28 05:40:57;;;;;;;;;;;;;;;;;;5100985;28;19927;-77
2022/03/28 05:43:23;;;;;;;;;;;;;;;;;;5103724;28;20379;-77
2022/03/28 05:45:50;;;;;;;;;;;;;;;;;;5093627;28;19961;-77
2022/03/28 05:48:16;;;;;;;;;;;;;;;;;;5091758;28;20588;-75
2022/03/28 05:50:42;;;;;;;;;;;;;;;;;;5094194;28;20376;-77
2022/03/28 05:53:13;;;;;;;;;;;;;;;;;;5093530;28;19918;-77
2022/03/28 05:55:39;;;;;;;;;;;;;;;;;;5093579;28;19915;-75
2022/03/28 05:58:05;;;;;;;;;;;;;;;;;;5094088;28;20011;-78
2022/03/28 06:00:30;;;;;;;;;;;;;;;;;;5094240;28;19965;-78
2022/03/28 06:02:57;;;;;;;;;;;;;;;;;;5093317;28;19947;-77
2022/03/28 06:05:23;;;;;;;;;;;;;;;;;;5092541;28;19915;-74
2022/03/28 06:07:49;;;;;;;;;;;;;;;;;;5094195;28;19912;-76
2022/03/28 06:10:16;;;;;;;;;;;;;;;;;;5094699;28;19916;-77
2022/03/28 06:12:43;;;;;;;;;;;;;;;;;;5091811;28;19908;-77
2022/03/28 06:15:10;;;;;;;;;;;;;;;;;;5094265;28;20049;-79
2022/03/28 06:17:36;;;;;;;;;;;;;;;;;;5093931;28;20353;-77
2022/03/28 06:20:02;;;;;;;;;;;;;;;;;;5093562;28;19995;-75
2022/03/28 06:22:28;;;;;;;;;;;;;;;;;;5093845;28;19995;-75
2022/03/28 06:24:54;;;;;;;;;;;;;;;;;;5093870;28;20249;-75
2022/03/28 06:27:23;;;;;;;;;;;;;;;;;;5073737;28;19919;-77
2022/03/28 06:29:49;;;;;;;;;;;;;;;;;;5079557;28;20388;-75
2022/03/28 06:32:15;;;;;;;;;;;;;;;;;;5073779;28;19989;-75
2022/03/28 06:34:41;;;;;;;;;;;;;;;;;;5055689;28;20267;-76
2022/03/28 06:37:07;;;;;;;;;;;;;;;;;;5074514;28;19916;-77
2022/03/28 06:39:34;;;;;;;;;;;;;;;;;;5077474;28;20007;-72
2022/03/28 06:42:00;;;;;;;;;;;;;;;;;;5073078;28;19920;-71
2022/03/28 06:44:26;;;;;;;;;;;;;;;;;;5054952;28;19909;-73
2022/03/28 06:46:52;;;;;;;;;;;;;;;;;;5072667;28;19936;-72
2022/03/28 06:49:18;;;;;;;;;;;;;;;;;;5072439;28;19909;-77
2022/03/28 06:51:44;;;;;;;;;;;;;;;;;;5072628;28;19912;-78
2022/03/28 06:54:13;;;;;;;;;;;;;;;;;;5072354;28;19954;-80
2022/03/28 06:56:39;;;;;;;;;;;;;;;;;;5073003;28;20356;-79
2022/03/28 06:59:06;;;;;;;;;;;;;;;;;;5055735;28;19916;-80
2022/03/28 07:01:32;;;;;;;;;;;;;;;;;;5073137;28;19923;-82
2022/03/28 07:03:58;;;;;;;;;;;;;;;;;;5073699;28;19908;-79
2022/03/28 07:06:24;;;;;;;;;;;;;;;;;;5073796;28;19919;-79
2022/03/28 07:08:51;;;;;;;;;;;;;;;;;;5074160;28;19915;-79
2022/03/28 07:11:17;;;;;;;;;;;;;;;;;;5075075;28;19908;-80
2022/03/28 07:13:43;;;;;;;;;;;;;;;;;;5057822;28;19908;-81
2022/03/28 07:16:09;;;;;;;;;;;;;;;;;;5076249;28;19915;-80
2022/03/28 07:18:36;;;;;;;;;;;;;;;;;;5056894;28;19962;-79
2022/03/28 07:21:02;;;;;;;;;;;;;;;;;;5072962;28;19924;-79
2022/03/28 07:23:28;;;;;;;;;;;;;;;;;;5092352;28;19923;-82
2022/03/28 07:25:56;;;;;;;;;;;;;;;;;;5092249;28;19912;-77
2022/03/28 07:28:22;;;;;;;;;;;;;;;;;;5093346;28;20364;-79
2022/03/28 07:30:48;;;;;;;;;;;;;;;;;;5092733;28;19990;-79
2022/03/28 07:33:14;;;;;;;;;;;;;;;;;;5093457;28;20333;-80
2022/03/28 07:35:40;;;;;;;;;;;;;;;;;;5093385;28;20280;-80
2022/03/28 07:38:08;;;;;;;;;;;;;;;;;;5092428;28;20287;-80
2022/03/28 07:40:34;;;;;;;;;;;;;;;;;;5093394;28;20387;-81
2022/03/28 07:43:00;;;;;;;;;;;;;;;;;;5093505;28;19908;-81
2022/03/28 07:45:26;;;;;;;;;;;;;;;;;;5093387;28;19990;-82
2022/03/28 07:47:52;;;;;;;;;;;;;;;;;;5093402;28;19908;-79
2022/03/28 07:50:18;;;;;;;;;;;;;;;;;;5092000;28;20359;-79
2022/03/28 07:52:44;;;;;;;;;;;;;;;;;;5092985;28;19908;-80
2022/03/28 07:55:13;;;;;;;;;;;;;;;;;;5093258;28;19959;-79
2022/03/28 07:57:39;;;;;;;;;;;;;;;;;;5092056;28;19908;-80
2022/03/28 08:00:05;;;;;;;;;;;;;;;;;;5091667;28;20372;-81
2022/03/28 08:02:31;;;;;;;;;;;;;;;;;;5093430;28;20398;-81
2022/03/28 08:04:58;;;;;;;;;;;;;;;;;;5092806;28;19908;-78
2022/03/28 08:07:24;;;;;;;;;;;;;;;;;;5092863;28;19947;-78
2022/03/28 08:09:51;;;;;;;;;;;;;;;;;;5091842;28;19995;-78
2022/03/28 08:12:17;;;;;;;;;;;;;;;;;;5090067;28;20257;-79
2022/03/28 08:14:43;;;;;;;;;;;;;;;;;;5092299;28;19915;-79
2022/03/28 08:17:09;;;;;;;;;;;;;;;;;;5093607;28;19912;-80
2022/03/28 08:19:35;;;;;;;;;;;;;;;;;;5091490;28;19994;-80
2022/03/28 08:22:01;;;;;;;;;;;;;;;;;;5090790;28;20326;-83
2022/03/28 08:24:27;;;;;;;;;;;;;;;;;;5091753;28;20360;-75
2022/03/28 08:26:53;;;;;;;;;;;;;;;;;;5092203;28;19990;-76
2022/03/28 08:29:19;;;;;;;;;;;;;;;;;;5094463;28;19909;-77
2022/03/28 08:31:45;;;;;;;;;;;;;;;;;;5096010;28;19919;-76
2022/03/28 08:35:54;;;;;;;;;;;;;;;;;;5090243;27;19917;-76
2022/03/28 08:38:21;;;;;;;;;;;;;;;;;;5088992;28;20003;-74
2022/03/28 08:40:48;;;;;;;;;;;;;;;;;;5089400;28;19909;-75
2022/03/28 08:43:14;;;;;;;;;;;;;;;;;;5088228;28;19988;-75
2022/03/28 08:46:57;;;;;;;;;;;;;;;;;;5089850;27;19917;-74
2022/03/28 08:49:23;;;;;;;;;;;;;;;;;;5089754;28;19995;-74
2022/03/28 08:51:51;;;;;;;;;;;;;;;;;;5091976;28;19908;-74
2022/03/28 08:54:44;;;;;;;;;;;;;;;;;;5090620;27;19916;-75
2022/03/28 08:57:10;;;;;;;;;;;;;;;;;;5090431;28;19923;-77
2022/03/28 08:59:36;;;;;;;;;;;;;;;;;;5090817;28;19999;-73
2022/03/28 09:05:20;;;;;;;;;;;;;;;;;;5091127;28;20411;-74
2022/03/28 09:07:46;;;;;;;;;;;;;;;;;;5090787;28;19912;-74
2022/03/28 09:10:12;;;;;;;;;;;;;;;;;;5090495;28;19924;-73
2022/03/28 09:12:41;;;;;;;;;;;;;;;;;;5090743;28;19912;-76
2022/03/28 09:15:14;;;;;;;;;;;;;;;;;;5090029;28;20015;-73
2022/03/28 09:17:40;;;;;;;;;;;;;;;;;;5089922;28;20319;-74
2022/03/28 09:20:06;;;;;;;;;;;;;;;;;;5090365;28;19913;-74
2022/03/28 09:22:32;;;;;;;;;;;;;;;;;;5089736;28;19969;-75
2022/03/28 09:24:58;;;;;;;;;;;;;;;;;;5090362;28;20434;-78
2022/03/28 09:29:41;;;;;;;;;;;;;;;;;;5111203;27;20375;-79
2022/03/28 09:32:07;;;;;;;;;;;;;;;;;;5110072;28;20011;-77
2022/03/28 09:34:34;;;;;;;;;;;;;;;;;;5108869;28;19994;-78
2022/03/28 09:37:01;;;;;;;;;;;;;;;;;;5109002;28;19908;-78
2022/03/28 09:40:36;;;;;;;;;;;;;;;;;;5087977;27;19920;-84
2022/03/28 09:43:02;;;;;;;;;;;;;;;;;;5078289;28;19978;-77
2022/03/28 09:45:28;;;;;;;;;;;;;;;;;;5072118;28;19909;-83
2022/03/28 09:48:14;;;;;;;;;;;;;;;;;;5091682;27;19922;-83
2022/03/28 09:51:35;;;;;;;;;;;;;;;;;;5090729;27;19926;-85
2022/03/28 09:54:01;;;;;;;;;;;;;;;;;;5090422;28;19973;-84
2022/03/28 09:56:27;;;;;;;;;;;;;;;;;;5088207;28;20369;-81
2022/03/28 10:01:10;;;;;;;;;;;;;;;;;;5088158;28;19920;-79
2022/03/28 10:03:36;;;;;;;;;;;;;;;;;;5088097;28;19912;-79
2022/03/28 10:06:02;;;;;;;;;;;;;;;;;;5087333;28;20015;-77
2022/03/28 10:08:28;;;;;;;;;;;;;;;;;;5089502;28;19995;-81
2022/03/28 10:10:54;;;;;;;;;;;;;;;;;;5086096;28;19923;-82
2022/03/28 10:13:20;;;;;;;;;;;;;;;;;;5069379;28;19999;-82
2022/03/28 10:15:46;;;;;;;;;;;;;;;;;;5070918;28;19915;-84
2022/03/28 10:19:34;;;;;;;;;;;;;;;;;;5092504;28;20295;-84
2022/03/28 10:22:47;;;;;;;;;;;;;;;;;;5093468;27;19923;-83
2022/03/28 10:26:30;;;;;;;;;;;;;;;;;;5091729;27;19913;-81
2022/03/28 10:28:56;;;;;;;;;;;;;;;;;;5092416;28;20360;-84
2022/03/28 10:31:59;;;;;;;;;;;;;;;;;;5090169;28;19917;-78
2022/03/28 10:34:25;;;;;;;;;;;;;;;;;;5090860;28;20325;-78
2022/03/28 10:37:50;;;;;;;;;;;;;;;;;;5090549;27;20403;-81
2022/03/28 10:40:16;;;;;;;;;;;;;;;;;;5089436;28;20288;-79
2022/03/28 10:45:02;;;;;;;;;;;;;;;;;;5094769;27;20406;-76
2022/03/28 10:47:28;;;;;;;;;;;;;;;;;;5087702;28;19924;-79
2022/03/28 10:49:54;;;;;;;;;;;;;;;;;;5091334;28;20348;-79
2022/03/28 10:58:30;;;;;;;;;;;;;;;;;;5090442;27;19921;-80
2022/03/28 11:00:56;;;;;;;;;;;;;;;;;;5084478;28;19991;-78
2022/03/28 11:04:08;;;;;;;;;;;;;;;;;;5090544;27;19919;-79
2022/03/28 11:06:34;;;;;;;;;;;;;;;;;;5089598;28;19912;-78
2022/03/28 11:10:53;;;;;;;;;;;;;;;;;;5147197;27;19912;-76
2022/03/28 11:13:19;;;;;;;;;;;;;;;;;;5151482;27;20015;-78
2022/03/28 11:17:00;;;;;;;;;;;;;;;;;;5110755;27;19916;-77
2022/03/28 11:20:57;;;;;;;;;;;;;;;;;;5087888;28;19921;-82
2022/03/28 11:25:23;;;;;;;;;;;;;;;;;;5075152;27;2198534;-77
2022/03/28 11:30:25;;;;;;;;;;;;;;;;;;5089508;27;19916;-75
2022/03/28 11:32:51;;;;;;;;;;;;;;;;;;5090321;28;19913;-74
2022/03/28 11:35:55;;;;;;;;;;;;;;;;;;5090197;27;19920;-76
2022/03/28 11:38:21;;;;;;;;;;;;;;;;;;5090241;28;19919;-75
2022/03/28 11:41:16;;;;;;;;;;;;;;;;;;5151943;27;19911;-77
2022/03/28 11:43:43;;;;;;;;;;;;;;;;;;5150818;27;19962;-74
2022/03/28 11:47:06;;;;;;;;;;;;;;;;;;5090579;28;19920;-77
2022/03/28 11:49:32;;;;;;;;;;;;;;;;;;5090923;28;19958;-73
2022/03/28 11:51:58;;;;;;;;;;;;;;;;;;5088783;28;19912;-75
2022/03/28 11:54:24;;;;;;;;;;;;;;;;;;5090759;28;19913;-74
2022/03/28 12:03:08;;;;;;;;;;;;;;;;;;5145243;27;19919;-77
2022/03/28 12:07:25;;;;;;;;;;;;;;;;;;5152305;27;20017;-77
2022/03/28 12:09:51;;;;;;;;;;;;;;;;;;5151693;27;20041;-76
2022/03/28 12:12:17;;;;;;;;;;;;;;;;;;5152280;27;19998;-75
2022/03/28 12:14:43;;;;;;;;;;;;;;;;;;5124204;28;19918;-76
2022/03/28 12:17:10;;;;;;;;;;;;;;;;;;5138077;27;19912;-77
2022/03/28 12:19:36;;;;;;;;;;;;;;;;;;5133298;27;19907;-75
2022/03/28 12:22:02;;;;;;;;;;;;;;;;;;5134609;27;19912;-75
2022/03/28 12:27:00;;;;;;;;;;;;;;;;;;5090242;27;19919;-75
2022/03/28 12:30:27;;;;;;;;;;;;;;;;;;5090791;27;19919;-76
2022/03/28 12:35:00;;;;;;;;;;;;;;;;;;5091023;27;19917;-72
2022/03/28 12:40:27;;;;;;;;;;;;;;;;;;5152307;27;19918;-68
2022/03/28 12:42:53;;;;;;;;;;;;;;;;;;5151671;27;19912;-69
2022/03/28 12:45:19;;;;;;;;;;;;;;;;;;5148469;27;19957;-68
2022/03/28 12:47:45;;;;;;;;;;;;;;;;;;5151871;27;19950;-68
2022/03/28 12:50:26;;;;;;;;;;;;;;;;;;5091348;27;19917;-68
2022/03/28 12:52:53;;;;;;;;;;;;;;;;;;5089128;28;19952;-68
2022/03/28 12:56:54;;;;;;;;;;;;;;;;;;5091319;27;19916;-67
2022/03/28 12:59:20;;;;;;;;;;;;;;;;;;5090643;28;19912;-69
2022/03/28 13:01:46;;;;;;;;;;;;;;;;;;5090264;28;19915;-70
2022/03/28 13:04:20;;;;;;;14.38;9.02;;;;;;;;;;5089457;28;20385;-69
2022/03/28 13:07:10;;;;;;;18.05;9.20;;;;;;;;;;5111011;27;20770;-68
2022/03/28 13:11:31;;;;;;;14.63;8.68;;;;;;;;;;5110883;27;20408;-69
2022/03/28 13:13:58;;;;;;;15.27;8.48;;;;;;;;;;5110660;28;20400;-69
2022/03/28 13:18:42;;;;;;;17.52;9.00;;;;;;;;;;5131315;27;20131;-68
2022/03/28 13:21:14;;;;;;;14.57;7.57;;;;;;;;;;5129939;28;20031;-69
2022/03/28 13:23:41;;;;;;;14.48;6.85;;;;;;;;;;5130676;28;20052;-70
2022/03/28 13:26:14;;;;;;;11.70;6.40;;;;;;;;;;5131265;28;20032;-70
2022/03/28 13:28:41;;;;;;;12.88;7.88;;;;;;;;;;5130760;28;20376;-68
2022/03/28 13:31:07;;;;;;;13.68;7.68;;;;;;;;;;5131008;28;20029;-68
2022/03/28 13:33:33;;;;;;;15.90;8.65;;;;;;;;;;5131157;28;20031;-69
2022/03/28 13:37:22;;;;;;;12.70;6.57;;;;;;;;;;5110462;27;20865;-69
2022/03/28 13:39:48;;;;;;;9.70;5.35;;;;;;;;;;5111277;28;20396;-69
2022/03/28 13:42:14;;;;;;;13.32;7.57;;;;;;;;;;5110899;28;20035;-69
2022/03/28 13:44:40;;;;;;;15.10;7.35;;;;;;;;;;5110501;28;20028;-69
2022/03/28 13:47:06;;;;;;;11.48;6.75;;;;;;;;;;5110643;28;20048;-69
2022/03/28 13:49:33;;;;;;;12.63;6.60;;;;;;;;;;5110849;28;20043;-69
2022/03/28 13:51:59;;;;;;;15.25;8.23;;;;;;;;;;5110333;28;20022;-69
2022/03/28 13:54:26;;;;;;;11.50;7.25;;;;;;;;;;5110816;28;20024;-69
2022/03/28 13:56:52;;;;;;;11.48;7.07;;;;;;;;;;5110131;28;20036;-70
2022/03/28 13:59:18;;;;;;;13.57;6.85;;;;;;;;;;5109844;28;20027;-69
2022/03/28 14:01:45;;;;;;;16.65;7.38;;;;;;;;;;5110648;28;20505;-70
2022/03/28 14:04:11;;;;;;;16.98;7.97;;;;;;;;;;5110257;28;20019;-69
2022/03/28 14:06:37;;;;;;;20.02;8.10;;;;;;;;;;5109212;28;20020;-69
2022/03/28 14:09:04;;;;;;;13.15;6.88;;;;;;;;;;5110495;28;20024;-69
2022/03/28 14:11:30;;;;;;;13.85;8.45;;;;;;;;;;5108841;28;20110;-69
2022/03/28 14:13:56;;;;;;;12.43;5.90;;;;;;;;;;5110598;28;20020;-69
2022/03/28 14:16:23;;;;;;;9.88;6.03;;;;;;;;;;5109278;28;20038;-69
2022/03/28 14:18:50;;;;;;;14.82;8.02;;;;;;;;;;5109923;28;20447;-69
2022/03/28 14:21:16;;;;;;;18.70;10.77;;;;;;;;;;5110318;28;20034;-70
2022/03/28 14:23:44;;;;;;;16.25;9.95;;;;;;;;;;5110843;28;20044;-69
2022/03/28 14:26:12;;;;;;;14.52;8.00;;;;;;;;;;5108472;28;20501;-70
2022/03/28 14:28:39;;;;;;;15.57;9.00;;;;;;;;;;5108628;28;20384;-69
2022/03/28 14:31:05;;;;;;;14.30;7.22;;;;;;;;;;5107821;28;20035;-69
2022/03/28 14:35:49;;;;;;;16.35;8.40;;;;;;;;;;5111195;27;20408;-68
2022/03/28 14:38:15;;;;;;;18.05;9.05;;;;;;;;;;5111152;28;20024;-68
2022/03/28 14:40:43;;;;;;;44.92;21.23;;;;;;;;;;5110684;28;20057;-69
2022/03/28 14:43:09;;;;;;;18.00;9.85;;;;;;;;;;5111042;28;20055;-69
2022/03/28 14:47:41;;;;;;;13.88;7.93;;;;;;;;;;5110766;27;20393;-68
2022/03/28 14:53:32;;;;;;;14.82;7.68;;;;;;;;;;5110857;27;20113;-68
2022/03/28 14:55:58;;;;;;;20.98;11.60;;;;;;;;;;5111228;28;20034;-68
2022/03/28 14:59:06;;;;;;;18.58;9.50;;;;;;;;;;5111774;27;20505;-69
2022/03/28 15:01:33;;;;;;;20.33;12.93;;;;;;;;;;5110722;28;20061;-69
2022/03/28 15:04:58;;;;;;;23.35;16.90;;;;;;;;;;5111201;27;20314;-67
2022/03/28 15:07:25;;;;;;;17.55;9.90;;;;;;;;;;5090401;28;20032;-69
2022/03/28 15:09:52;;;;;;;16.27;9.80;;;;;;;;;;5090677;28;20040;-70
2022/03/28 15:14:18;;;;;;;22.52;13.27;;;;;;;;;;5110905;27;20400;-68
2022/03/28 15:16:44;;;;;;;;;;;;;;;;;;5111515;28;20430;-68
2022/03/28 15:19:10;;;;;;;;;;;;;;;;;;5111452;28;19903;-70
2022/03/28 15:21:36;;;;;;;;;;;;;;;;;;5111095;28;19904;-70
2022/03/28 15:24:28;;;;;;;;;;;;;;;;;;5111876;27;19916;-68
2022/03/28 15:29:04;;;;;;;;;;;;;;;;;;5111478;27;19912;-70
2022/03/28 15:32:45;;;;;;;;;;;;;;;;;;5091560;27;19916;-70
2022/03/28 15:35:12;;;;;;;;;;;;;;;;;;5091117;28;20356;-69
2022/03/28 15:37:38;;;;;;;;;;;;;;;;;;5089945;28;19908;-70
2022/03/28 15:40:38;;;;;;;;;;;;;;;;;;5111834;27;20386;-70
2022/03/28 15:49:22;;;;;;;;;;;;;;;;;;5090955;28;20274;-69
2022/03/28 15:53:24;;;;;;;;;;;;;;;;;;5111626;27;19916;-69
2022/03/28 15:55:51;;;;;;;;;;;;;;;;;;5111471;28;19919;-68
2022/03/28 15:58:17;;;;;;;;;;;;;;;;;;5111079;28;19946;-69
2022/03/28 16:00:43;;;;;;;;;;;;;;;;;;5111471;28;19915;-69
2022/03/28 16:04:02;;;;;;;;;;;;;;;;;;5111334;27;19912;-68
2022/03/28 16:06:28;;;;;;;;;;;;;;;;;;5111474;28;19911;-68
2022/03/28 16:08:54;;;;;;;;;;;;;;;;;;5111496;28;19908;-68
2022/03/28 16:13:18;;;;;;;;;;;;;;;;;;5111485;27;19916;-67
2022/03/28 16:15:44;;;;;;;;;;;;;;;;;;5111624;28;20010;-67
2022/03/28 16:18:10;;;;;;;;;;;;;;;;;;5111095;28;19961;-67
2022/03/28 16:22:02;;;;;;;;;;;;;;;;;;5111450;27;20299;-68
2022/03/28 16:24:28;;;;;;;;;;;;;;;;;;5111098;28;20292;-68
2022/03/28 16:26:54;;;;;;;;;;;;;;;;;;5111485;28;19999;-68
2022/03/28 16:29:20;;;;;;;;;;;;;;;;;;5110062;28;19943;-68
2022/03/28 16:31:48;;;;;;;;;;;;;;;;;;5109660;28;19915;-68
2022/03/28 16:34:14;;;;;;;;;;;;;;;;;;5111337;28;19908;-68
2022/03/28 16:36:40;;;;;;;;;;;;;;;;;;5111364;28;20367;-68
2022/03/28 16:39:06;;;;;;;;;;;;;;;;;;5109216;28;19908;-68
2022/03/28 16:41:32;;;;;;;;;;;;;;;;;;5111080;28;19920;-69
2022/03/28 16:43:58;;;;;;;;;;;;;;;;;;5111075;28;19931;-69
2022/03/28 16:46:25;;;;;;;;;;;;;;;;;;5109293;28;20003;-70
2022/03/28 16:49:15;;;;;;;;;;;;;;;;;;5111819;27;19919;-69
2022/03/28 16:51:41;;;;;;;;;;;;;;;;;;5111529;28;19919;-70
2022/03/28 16:54:07;;;;;;;;;;;;;;;;;;5111034;28;19912;-67
2022/03/28 16:57:20;;;;;;;;;;;;;;;;;;5152838;27;20013;-70
2022/03/28 17:00:39;;;;;;;;;;;;;;;;;;5091231;28;19916;-69
2022/03/28 17:03:05;;;;;;;;;;;;;;;;;;5091309;28;20436;-69
2022/03/28 17:05:33;;;;;;;;;;;;;;;;;;5091072;28;19918;-70
2022/03/28 17:07:59;;;;;;;;;;;;;;;;;;5090820;28;20003;-69
2022/03/28 17:10:30;;;;;;;;;;;;;;;;;;5090985;28;20422;-69
2022/03/28 17:16:00;;;;;;;;;;;;;;;;;;5111708;27;19916;-68
2022/03/28 17:18:28;;;;;;;;;;;;;;;;;;5111425;28;19966;-70
2022/03/28 17:20:54;;;;;;;;;;;;;;;;;;5111149;28;19979;-70
2022/03/28 17:23:20;;;;;;;;;;;;;;;;;;5110294;28;19912;-69
2022/03/28 17:25:46;;;;;;;;;;;;;;;;;;5110099;28;19908;-68
2022/03/28 17:28:12;;;;;;;;;;;;;;;;;;5110884;28;19915;-68
2022/03/28 17:33:03;;;;;;;;;;;;;;;;;;5091129;27;19923;-68
2022/03/28 17:35:29;;;;;;;;;;;;;;;;;;5090802;28;19916;-68
2022/03/28 17:40:22;;;;;;;;;;;;;;;;;;5091432;28;19912;-67
2022/03/28 17:42:53;;;;;;;;;;;;;;;;;;5090694;28;19919;-67
2022/03/28 17:46:41;;;;;;;;;;;;;;;;;;5091076;27;19934;-70
2022/03/28 17:51:26;;;;;;;;;;;;;;;;;;5091194;28;19922;-68
2022/03/28 17:56:27;;;;;;;;;;;;;;;;;;5111120;27;19938;-70
2022/03/28 18:00:11;;;;;;;;;;;;;;;;;;5090980;27;19957;-70
2022/03/28 18:05:28;;;;;;;;;;;;;;;;;;5111916;27;19916;-67
2022/03/28 18:07:54;;;;;;;;;;;;;;;;;;5111469;28;19916;-69
2022/03/28 18:11:16;;;;;;;;;;;;;;;;;;5111516;27;19922;-68
2022/03/28 18:17:20;;;;;;;;;;;;;;;;;;5111285;27;20303;-70
2022/03/28 18:19:46;;;;;;;;;;;;;;;;;;5111559;28;20318;-68